Time;durP1;ratioP1;P1;durP2;ratioP2;P2;SDS_P1;SDS_P2;PMS_P1;PMS_P2;Temp;Humidity;BMP_temperature;BMP_pressure;BME280_temperature;BME280_humidity;BME280_pressure;Samples;Min_cycle;Max_cycle;Signal;HPM_P1;HPM_P2
2022/06/04 00:00:12;;;;;;;5.50;3.60;;;;;;;25.42;47.48;101302.64;106857;1284;61339;-81
2022/06/04 00:02:42;;;;;;;4.90;3.40;;;;;;;25.42;47.50;101303.39;106849;1284;61500;-81
2022/06/04 00:05:09;;;;;;;4.70;3.80;;;;;;;25.42;47.53;101299.95;106866;1284;72752;-82
2022/06/04 00:07:34;;;;;;;5.50;3.60;;;;;;;25.42;47.70;101302.11;106827;1285;75079;-83
2022/06/04 00:15:29;;;;;;;4.80;3.50;;;;;;;25.42;47.57;101296.91;106929;1283;72632;-82
2022/06/04 00:17:55;;;;;;;4.20;3.40;;;;;;;25.42;47.50;101293.30;106827;1286;61501;-82
2022/06/04 00:20:21;;;;;;;4.30;3.10;;;;;;;25.42;47.56;101293.68;106687;1283;61261;-82
2022/06/04 00:22:47;;;;;;;4.80;3.60;;;;;;;25.41;47.65;101291.74;106870;1284;61238;-81
2022/06/04 00:25:14;;;;;;;4.90;3.60;;;;;;;25.42;47.65;101292.60;106823;1284;61307;-81
2022/06/04 00:27:39;;;;;;;4.50;3.50;;;;;;;25.41;47.64;101292.83;106775;1284;61465;-81
2022/06/04 00:30:06;;;;;;;5.80;3.20;;;;;;;25.41;47.68;101294.64;106837;1284;61262;-81
2022/06/04 00:32:34;;;;;;;4.80;3.50;;;;;;;25.41;47.67;101292.82;106880;1284;61352;-82
2022/06/04 00:35:04;;;;;;;4.60;3.30;;;;;;;25.41;47.66;101290.65;107232;1283;61225;-82
2022/06/04 00:37:34;;;;;;;4.60;3.30;;;;;;;25.41;47.65;101286.75;106449;1287;74406;-79
2022/06/04 00:39:59;;;;;;;4.50;3.50;;;;;;;25.41;47.55;101286.92;106472;1286;61398;-84
2022/06/04 00:42:25;;;;;;;4.30;3.30;;;;;;;25.41;47.64;101282.04;106442;1287;61285;-82
2022/06/04 00:45:15;;;;;;;5.20;3.40;;;;;;;25.40;47.60;101280.64;106422;1286;61295;-82
2022/06/04 00:47:41;;;;;;;4.80;3.50;;;;;;;25.40;47.61;101279.38;106741;1285;76015;-81
2022/06/04 00:50:08;;;;;;;5.10;3.40;;;;;;;25.40;47.59;101279.21;106645;1286;61385;-79
2022/06/04 00:52:34;;;;;;;4.50;3.30;;;;;;;25.40;47.58;101279.78;106603;1286;61105;-81
2022/06/04 00:55:00;;;;;;;4.60;3.30;;;;;;;25.40;47.74;101282.98;106515;1286;61151;-84
2022/06/04 00:57:56;;;;;;;4.70;3.40;;;;;;;25.40;47.74;101282.83;106460;1286;61421;-81
2022/06/04 01:00:27;;;;;;;4.30;3.30;;;;;;;25.39;47.84;101278.38;106470;1286;61237;-81
2022/06/04 01:02:58;;;;;;;4.20;3.20;;;;;;;25.40;47.88;101280.52;106764;1286;61279;-82
2022/06/04 01:05:29;;;;;;;4.70;3.20;;;;;;;25.39;47.70;101273.88;106760;1286;72685;-83
2022/06/04 01:08:40;;;;;;;4.70;3.30;;;;;;;25.39;47.72;101272.83;106751;1286;73675;-82
2022/06/04 01:11:22;;;;;;;4.90;3.50;;;;;;;25.38;47.77;101276.66;106477;1286;61174;-83
2022/06/04 01:13:51;;;;;;;4.70;3.20;;;;;;;25.38;47.76;101273.78;106725;1286;61416;-79
2022/06/04 01:16:51;;;;;;;4.80;3.30;;;;;;;25.39;47.66;101279.17;107115;1283;73742;-82
2022/06/04 01:19:29;;;;;;;5.30;3.20;;;;;;;25.39;47.78;101283.31;106723;1284;75766;-81
2022/06/04 01:22:32;;;;;;;4.50;3.40;;;;;;;25.39;47.77;101285.27;107231;1283;61417;-82
2022/06/04 01:25:15;;;;;;;4.60;3.40;;;;;;;25.38;47.82;101284.08;107196;1283;61160;-81
2022/06/04 01:27:45;;;;;;;4.50;3.10;;;;;;;25.38;47.73;101282.61;107114;1283;73711;-82
2022/06/04 01:30:14;;;;;;;4.00;3.20;;;;;;;25.38;47.68;101283.88;107121;1283;73492;-81
2022/06/04 01:32:44;;;;;;;4.40;3.10;;;;;;;25.38;47.75;101279.59;107137;1283;61165;-83
2022/06/04 01:35:14;;;;;;;5.20;3.70;;;;;;;25.38;47.72;101277.23;106915;1283;61252;-81
2022/06/04 01:38:10;;;;;;;5.90;3.50;;;;;;;25.38;47.66;101276.69;106874;1283;74271;-83
2022/06/04 01:41:03;;;;;;;4.30;3.10;;;;;;;25.38;47.89;101269.88;107204;1283;74222;-82
2022/06/04 01:44:08;;;;;;;4.30;3.30;;;;;;;25.37;47.78;101270.45;106935;1283;61330;-84
2022/06/04 01:46:36;;;;;;;4.10;3.20;;;;;;;25.37;47.86;101267.43;107210;1283;61125;-81
2022/06/04 01:49:29;;;;;;;4.80;3.40;;;;;;;25.37;47.82;101271.52;106911;1283;73964;-83
2022/06/04 01:51:58;;;;;;;4.60;3.30;;;;;;;25.37;47.85;101267.74;106897;1283;75825;-84
2022/06/04 01:54:30;;;;;;;4.80;3.20;;;;;;;25.37;47.79;101263.08;107250;1283;61288;-83
2022/06/04 01:57:06;;;;;;;4.60;3.30;;;;;;;25.37;47.85;101261.48;107218;1283;61772;-81
2022/06/04 01:59:41;;;;;;;5.30;3.00;;;;;;;25.37;47.95;101260.20;107231;1283;73915;-82
2022/06/04 02:02:09;;;;;;;4.30;3.20;;;;;;;25.37;47.76;101257.70;106853;1284;74771;-83
2022/06/04 02:04:37;;;;;;;4.50;3.30;;;;;;;25.37;47.89;101252.81;106828;1283;61408;-83
2022/06/04 02:09:53;;;;;;;4.40;3.10;;;;;;;25.37;47.82;101254.46;106907;1283;72694;-82
2022/06/04 02:12:19;;;;;;;4.20;3.40;;;;;;;25.37;47.84;101253.94;106873;1283;74793;-81
2022/06/04 02:14:45;;;;;;;4.40;3.10;;;;;;;25.37;47.85;101255.54;106778;1283;61158;-81
2022/06/04 02:17:15;;;;;;;5.40;3.20;;;;;;;25.37;47.83;101255.19;106868;1283;61254;-83
2022/06/04 02:19:41;;;;;;;5.30;3.50;;;;;;;25.37;47.81;101256.08;106882;1282;73708;-82
2022/06/04 02:22:08;;;;;;;4.10;3.10;;;;;;;25.37;47.79;101252.11;107203;1283;61333;-82
2022/06/04 02:24:34;;;;;;;4.00;3.10;;;;;;;25.37;47.78;101254.48;106519;1284;61558;-82
2022/06/04 02:27:01;;;;;;;4.50;3.30;;;;;;;25.36;47.79;101258.48;106921;1284;61336;-81
2022/06/04 02:29:27;;;;;;;4.40;3.30;;;;;;;25.36;47.65;101259.55;106873;1283;61200;-81
2022/06/04 02:32:30;;;;;;;4.40;3.20;;;;;;;25.36;47.83;101262.78;106836;1283;61335;-81
2022/06/04 02:35:10;;;;;;;5.80;3.10;;;;;;;25.36;47.89;101263.19;107092;1283;61153;-82
2022/06/04 02:38:00;;;;;;;4.10;3.10;;;;;;;25.36;47.85;101263.72;107164;1283;61838;-81
2022/06/04 02:40:36;;;;;;;4.50;3.40;;;;;;;25.36;47.76;101263.18;106945;1283;72758;-82
2022/06/04 02:43:07;;;;;;;5.40;3.30;;;;;;;25.36;47.64;101265.74;106851;1284;74531;-81
2022/06/04 02:45:41;;;;;;;4.80;3.20;;;;;;;25.35;47.82;101270.64;106892;1283;61416;-81
2022/06/04 02:48:14;;;;;;;5.20;3.30;;;;;;;25.36;47.73;101269.16;106684;1283;61308;-83
2022/06/04 02:50:50;;;;;;;6.40;3.50;;;;;;;25.35;47.79;101268.80;106758;1283;72809;-81
2022/06/04 02:53:16;;;;;;;4.00;2.90;;;;;;;25.36;47.72;101272.23;106909;1283;74590;-81
2022/06/04 02:55:48;;;;;;;4.20;3.30;;;;;;;25.35;47.86;101274.20;106878;1284;61285;-83
2022/06/04 02:58:15;;;;;;;4.50;3.10;;;;;;;25.37;48.00;101275.20;106873;1283;61253;-82
2022/06/04 03:00:42;;;;;;;4.60;3.40;;;;;;;25.35;47.86;101279.08;106903;1283;72725;-81
2022/06/04 03:03:12;;;;;;;4.40;3.00;;;;;;;25.37;47.54;101284.03;106594;1285;61854;-81
2022/06/04 03:05:39;;;;;;;3.90;3.10;;;;;;;25.36;47.76;101282.41;106911;1283;61359;-81
2022/06/04 03:08:05;;;;;;;5.10;3.00;;;;;;;25.37;47.91;101284.38;107068;1283;61118;-84
2022/06/04 03:10:32;;;;;;;3.60;2.70;;;;;;;25.37;47.79;101285.83;106882;1284;61254;-80
2022/06/04 03:12:58;;;;;;;5.00;3.20;;;;;;;25.37;47.72;101294.12;106816;1283;75741;-82
2022/06/04 03:15:24;;;;;;;4.00;3.10;;;;;;;25.37;47.68;101292.85;106611;1284;61270;-81
2022/06/04 03:17:49;;;;;;;4.10;2.90;;;;;;;25.37;47.75;101303.30;106649;1283;61433;-82
2022/06/04 03:20:18;;;;;;;4.30;3.20;;;;;;;25.37;47.80;101303.08;106859;1283;61259;-83
2022/06/04 03:22:43;;;;;;;4.50;3.10;;;;;;;25.37;47.80;101308.83;106879;1283;61370;-81
2022/06/04 03:25:09;;;;;;;5.40;3.30;;;;;;;25.37;47.92;101304.92;107202;1283;61371;-82
2022/06/04 03:27:35;;;;;;;4.70;3.20;;;;;;;25.37;47.69;101305.79;106856;1283;61256;-82
2022/06/04 03:30:00;;;;;;;4.10;2.90;;;;;;;25.37;47.77;101309.73;106876;1283;61364;-81
2022/06/04 03:32:26;;;;;;;3.80;2.90;;;;;;;25.37;47.85;101309.55;106919;1283;61254;-82
2022/06/04 03:34:52;;;;;;;4.30;3.20;;;;;;;25.37;47.77;101311.55;106886;1283;75613;-84
2022/06/04 03:37:18;;;;;;;4.20;3.00;;;;;;;25.37;47.82;101307.38;106881;1283;61276;-84
2022/06/04 03:39:43;;;;;;;5.90;3.30;;;;;;;25.37;47.79;101309.17;107034;1283;61241;-81
2022/06/04 03:42:09;;;;;;;4.80;3.10;;;;;;;25.37;47.78;101311.55;106848;1283;61292;-81
2022/06/04 03:44:35;;;;;;;4.60;3.40;;;;;;;25.37;47.92;101314.23;106879;1283;61304;-84
2022/06/04 03:47:00;;;;;;;4.70;3.30;;;;;;;25.37;47.80;101313.86;106912;1283;61285;-79
2022/06/04 03:49:26;;;;;;;4.80;3.30;;;;;;;25.38;47.87;101316.90;107236;1283;61401;-81
2022/06/04 03:51:51;;;;;;;4.90;3.40;;;;;;;25.38;47.93;101318.34;106948;1283;61359;-80
2022/06/04 03:54:17;;;;;;;4.70;2.90;;;;;;;25.37;47.89;101318.04;106622;1283;61407;-82
2022/06/04 03:57:37;;;;;;;3.90;3.10;;;;;;;25.38;47.61;101314.39;107236;1283;61248;-81
2022/06/04 03:59:28;;;;;;;4.80;3.10;;;;;;;25.38;47.87;101318.15;106967;1283;61381;-79
2022/06/04 04:01:54;;;;;;;4.60;3.20;;;;;;;25.37;47.75;101321.98;106615;1284;61294;-82
2022/06/04 04:04:19;;;;;;;5.20;3.20;;;;;;;25.38;47.74;101323.57;107240;1283;61283;-82
2022/06/04 04:06:45;;;;;;;4.80;3.30;;;;;;;25.38;47.97;101322.11;107212;1283;61304;-81
2022/06/04 04:09:11;;;;;;;4.50;3.10;;;;;;;25.38;47.76;101323.51;106870;1283;61312;-81
2022/06/04 04:11:37;;;;;;;4.90;3.10;;;;;;;25.38;47.77;101325.64;107236;1283;61180;-82
2022/06/04 04:14:03;;;;;;;4.50;3.10;;;;;;;25.39;47.67;101325.82;106942;1283;61288;-83
2022/06/04 04:16:29;;;;;;;4.70;3.20;;;;;;;25.39;47.83;101325.23;107007;1283;73857;-83
2022/06/04 04:18:54;;;;;;;4.30;3.20;;;;;;;25.40;47.73;101323.21;107226;1283;61298;-82
2022/06/04 04:21:21;;;;;;;4.50;3.40;;;;;;;25.40;47.77;101324.98;106889;1283;61270;-81
2022/06/04 04:23:46;;;;;;;4.40;3.10;;;;;;;25.41;47.65;101323.34;106908;1283;61720;-81
2022/06/04 04:26:13;;;;;;;5.20;3.20;;;;;;;25.41;47.79;101320.23;107025;1283;61477;-80
2022/06/04 04:28:39;;;;;;;4.10;3.30;;;;;;;25.42;47.76;101318.39;106927;1283;61255;-82
2022/06/04 04:31:17;;;;;;;4.70;3.00;;;;;;;25.42;47.79;101317.46;107020;1283;61180;-83
2022/06/04 04:33:43;;;;;;;5.00;3.10;;;;;;;25.42;47.87;101320.65;106918;1283;61166;-79
2022/06/04 04:36:08;;;;;;;3.90;2.90;;;;;;;25.43;47.74;101320.27;106904;1283;61294;-81
2022/06/04 04:38:34;;;;;;;4.30;3.10;;;;;;;25.43;47.76;101318.25;107154;1283;61233;-81
2022/06/04 04:41:00;;;;;;;4.20;3.00;;;;;;;25.44;47.83;101318.54;106701;1283;61272;-82
2022/06/04 04:43:26;;;;;;;4.00;3.00;;;;;;;25.45;47.78;101320.09;106934;1283;62069;-82
2022/06/04 04:46:02;;;;;;;3.70;2.50;;;;;;;25.46;47.78;101320.00;107055;1283;61380;-81
2022/06/04 04:48:28;;;;;;;4.90;2.70;;;;;;;25.47;47.79;101321.39;107230;1283;72524;-81
2022/06/04 04:50:54;;;;;;;3.60;2.70;;;;;;;25.47;47.65;101326.05;106928;1283;61230;-82
2022/06/04 04:53:20;;;;;;;3.60;2.50;;;;;;;25.49;47.66;101324.67;106929;1283;61404;-81
2022/06/04 04:55:46;;;;;;;4.10;2.90;;;;;;;25.49;47.61;101326.42;106941;1283;61291;-81
2022/06/04 04:58:12;;;;;;;4.00;2.80;;;;;;;25.51;47.87;101326.86;106668;1283;61118;-83
2022/06/04 05:00:37;;;;;;;4.70;2.80;;;;;;;25.51;47.82;101328.59;106969;1283;61332;-82
2022/06/04 05:03:03;;;;;;;4.30;2.90;;;;;;;25.53;47.71;101329.73;107294;1283;61391;-83
2022/06/04 05:05:29;;;;;;;3.90;2.70;;;;;;;25.53;47.70;101332.91;106900;1283;62471;-81
2022/06/04 05:07:55;;;;;;;3.90;2.70;;;;;;;25.54;47.62;101327.98;106893;1284;61349;-81
2022/06/04 05:10:21;;;;;;;4.00;2.90;;;;;;;25.55;47.65;101323.27;106937;1283;61412;-81
2022/06/04 05:12:53;;;;;;;4.20;3.10;;;;;;;25.56;47.63;101320.30;106913;1283;61985;-82
2022/06/04 05:15:19;;;;;;;3.50;2.40;;;;;;;25.56;47.59;101323.14;106937;1282;61222;-81
2022/06/04 05:17:45;;;;;;;3.90;2.90;;;;;;;25.57;47.83;101323.45;106879;1283;61302;-83
2022/06/04 05:20:11;;;;;;;4.10;3.00;;;;;;;25.58;47.59;101322.98;106939;1283;61374;-82
2022/06/04 05:22:36;;;;;;;4.20;2.90;;;;;;;25.59;47.66;101320.60;106887;1283;61301;-82
2022/06/04 05:25:03;;;;;;;3.50;2.70;;;;;;;25.59;47.71;101323.22;107234;1283;61220;-82
2022/06/04 05:27:29;;;;;;;4.70;2.80;;;;;;;25.60;47.49;101323.88;106901;1283;59204;-83
2022/06/04 05:29:56;;;;;;;4.10;2.80;;;;;;;25.61;47.78;101325.25;107207;1283;61368;-82
2022/06/04 05:32:21;;;;;;;3.90;2.90;;;;;;;25.62;47.73;101329.19;107217;1283;61262;-82
2022/06/04 05:34:47;;;;;;;4.00;2.80;;;;;;;25.63;47.78;101333.27;106918;1283;61241;-81
2022/06/04 05:37:13;;;;;;;3.80;3.00;;;;;;;25.63;47.69;101331.60;106932;1283;61247;-82
2022/06/04 05:39:38;;;;;;;4.00;2.70;;;;;;;25.64;47.74;101332.77;106989;1283;61282;-81
2022/06/04 05:42:04;;;;;;;4.20;2.70;;;;;;;25.64;47.55;101331.86;106889;1283;61464;-81
2022/06/04 05:44:30;;;;;;;3.60;2.70;;;;;;;25.65;47.43;101332.72;106635;1283;61247;-82
2022/06/04 05:46:56;;;;;;;4.30;2.80;;;;;;;25.66;47.55;101332.48;106927;1283;61433;-81
2022/06/04 05:49:22;;;;;;;3.70;2.70;;;;;;;25.67;47.50;101337.41;106906;1283;61581;-83
2022/06/04 05:51:47;;;;;;;3.90;2.80;;;;;;;25.67;47.49;101339.91;107278;1283;61268;-85
2022/06/04 05:54:13;;;;;;;3.90;2.50;;;;;;;25.68;47.46;101341.11;106911;1283;73721;-82
2022/06/04 05:56:42;;;;;;;4.30;2.90;;;;;;;25.68;47.55;101335.86;106931;1283;61931;-82
2022/06/04 05:59:09;;;;;;;3.90;2.80;;;;;;;25.69;47.55;101336.02;106925;1283;61369;-83
2022/06/04 06:01:35;;;;;;;4.50;2.90;;;;;;;25.69;47.54;101336.19;106604;1284;61401;-83
2022/06/04 06:04:01;;;;;;;4.40;3.00;;;;;;;25.70;47.53;101340.40;106889;1283;61237;-83
2022/06/04 06:06:30;;;;;;;4.50;2.80;;;;;;;25.70;47.60;101338.78;106867;1283;61147;-83
2022/06/04 06:08:56;;;;;;;3.90;2.90;;;;;;;25.71;47.49;101336.73;106917;1283;61233;-81
2022/06/04 06:11:22;;;;;;;4.20;2.80;;;;;;;25.71;47.55;101332.92;107258;1283;61252;-82
2022/06/04 06:13:48;;;;;;;3.70;2.70;;;;;;;25.71;47.55;101326.23;106662;1283;375299;-81
2022/06/04 06:16:19;;;;;;;3.50;2.70;;;;;;;25.72;47.50;101321.86;106876;1283;61271;-83
2022/06/04 06:18:44;;;;;;;4.30;2.90;;;;;;;25.72;47.46;101325.25;106718;1283;60478;-84
2022/06/04 06:21:12;;;;;;;3.90;3.00;;;;;;;25.72;47.61;101330.09;106968;1283;61339;-84
2022/06/04 06:23:38;;;;;;;5.30;3.00;;;;;;;25.73;47.58;101334.57;106947;1283;73476;-82
2022/06/04 06:26:06;;;;;;;4.30;3.20;;;;;;;25.73;47.49;101338.70;106804;1283;61355;-82
2022/06/04 06:28:33;;;;;;;4.30;2.70;;;;;;;25.73;47.49;101339.02;106943;1283;61285;-82
2022/06/04 06:30:58;;;;;;;4.30;2.70;;;;;;;25.74;47.52;101335.77;106917;1283;61967;-82
2022/06/04 06:33:25;;;;;;;4.10;2.90;;;;;;;25.74;47.51;101335.20;106890;1283;61287;-82
2022/06/04 06:35:57;;;;;;;3.80;3.00;;;;;;;25.74;47.40;101335.72;106903;1283;61434;-82
2022/06/04 06:38:23;;;;;;;4.90;2.90;;;;;;;25.74;47.53;101324.70;106608;1285;61265;-81
2022/06/04 06:40:48;;;;;;;4.40;3.00;;;;;;;25.74;47.48;101325.95;106915;1283;61957;-83
2022/06/04 06:43:14;;;;;;;3.60;3.00;;;;;;;25.75;47.57;101328.27;106941;1283;61270;-82
2022/06/04 06:45:41;;;;;;;4.00;2.90;;;;;;;25.75;47.65;101329.69;107241;1283;61368;-82
2022/06/04 06:48:08;;;;;;;4.50;3.20;;;;;;;25.75;47.62;101329.89;106897;1283;59819;-83
2022/06/04 06:50:34;;;;;;;3.70;2.80;;;;;;;25.75;47.37;101329.35;106591;1284;61334;-83
2022/06/04 06:53:00;;;;;;;5.00;3.00;;;;;;;25.75;47.52;101326.78;106920;1283;61256;-82
2022/06/04 06:55:26;;;;;;;3.90;2.80;;;;;;;25.75;47.63;101320.13;106899;1283;61387;-82
2022/06/04 06:57:52;;;;;;;3.80;2.80;;;;;;;25.76;47.49;101321.33;106940;1283;61381;-84
2022/06/04 07:00:18;;;;;;;3.90;2.90;;;;;;;25.76;47.57;101318.48;107000;1283;61272;-83
2022/06/04 07:02:44;;;;;;;4.00;2.70;;;;;;;25.76;47.53;101319.36;106915;1283;61291;-81
2022/06/04 07:05:10;;;;;;;4.30;3.10;;;;;;;25.75;47.37;101314.86;107235;1283;61359;-81
2022/06/04 07:07:36;;;;;;;4.00;3.10;;;;;;;25.76;47.52;101311.09;106924;1283;61331;-82
2022/06/04 07:10:01;;;;;;;4.30;3.10;;;;;;;25.76;47.57;101307.10;106919;1283;61270;-82
2022/06/04 07:12:27;;;;;;;4.50;2.80;;;;;;;25.76;47.62;101305.45;106896;1283;61250;-83
2022/06/04 07:14:53;;;;;;;5.70;3.40;;;;;;;25.76;47.69;101307.27;106986;1283;61285;-83
2022/06/04 07:17:18;;;;;;;4.50;3.10;;;;;;;25.76;47.54;101309.80;106853;1283;73638;-82
2022/06/04 07:19:44;;;;;;;3.70;2.90;;;;;;;25.76;47.41;101310.36;106615;1283;61246;-82
2022/06/04 07:22:10;;;;;;;4.50;3.20;;;;;;;25.76;47.44;101308.52;106926;1283;61741;-81
2022/06/04 07:24:37;;;;;;;4.40;3.00;;;;;;;25.76;47.68;101306.70;106910;1283;61292;-85
2022/06/04 07:27:03;;;;;;;4.60;3.00;;;;;;;25.76;47.57;101302.92;106919;1283;61218;-82
2022/06/04 07:29:29;;;;;;;4.70;3.20;;;;;;;25.76;47.60;101302.03;106862;1283;61363;-82
2022/06/04 07:31:54;;;;;;;4.30;3.20;;;;;;;25.76;47.65;101300.95;106636;1283;61242;-81
2022/06/04 07:34:20;;;;;;;4.80;3.10;;;;;;;25.76;47.43;101304.34;106699;1283;61257;-82
2022/06/04 07:36:46;;;;;;;4.50;3.10;;;;;;;25.76;47.54;101306.36;107226;1283;61290;-82
2022/06/04 07:39:14;;;;;;;4.50;3.20;;;;;;;25.76;47.44;101301.69;106932;1283;61422;-82
2022/06/04 07:41:43;;;;;;;5.10;3.20;;;;;;;25.76;47.56;101299.88;107027;1283;73796;-82
2022/06/04 07:44:09;;;;;;;4.70;3.00;;;;;;;25.77;47.67;101299.30;106948;1283;61280;-82
2022/06/04 07:46:35;;;;;;;4.10;3.00;;;;;;;25.77;47.73;101301.08;106918;1283;61607;-81
2022/06/04 07:49:03;;;;;;;5.00;3.40;;;;;;;25.77;47.58;101298.71;107216;1283;61231;-81
2022/06/04 07:51:29;;;;;;;4.30;3.10;;;;;;;25.77;47.61;101292.21;106849;1283;73690;-81
2022/06/04 07:53:55;;;;;;;4.40;3.00;;;;;;;25.77;47.56;101295.64;106709;1283;61337;-81
2022/06/04 07:56:20;;;;;;;4.90;3.30;;;;;;;25.77;47.60;101292.21;106649;1283;61236;-81
2022/06/04 07:58:46;;;;;;;4.40;3.20;;;;;;;25.77;47.60;101288.96;107260;1283;61138;-81
2022/06/04 08:01:14;;;;;;;5.10;3.40;;;;;;;25.76;47.53;101283.47;106832;1283;61204;-81
2022/06/04 08:03:41;;;;;;;4.30;3.30;;;;;;;25.76;47.68;101286.35;106906;1283;61261;-81
2022/06/04 08:06:07;;;;;;;3.80;3.20;;;;;;;25.75;47.57;101285.32;106936;1283;61189;-82
2022/06/04 08:08:34;;;;;;;4.70;3.30;;;;;;;25.75;47.62;101285.48;106827;1283;61471;-85
2022/06/04 08:10:59;;;;;;;4.80;3.40;;;;;;;25.76;47.53;101289.45;106756;1282;61289;-81
2022/06/04 08:13:25;;;;;;;4.60;3.30;;;;;;;25.75;47.62;101288.77;106586;1283;61161;-82
2022/06/04 08:15:54;;;;;;;4.40;3.30;;;;;;;25.75;47.73;101285.15;106901;1283;61277;-81
2022/06/04 08:18:19;;;;;;;4.10;3.30;;;;;;;25.75;47.69;101283.15;106904;1283;61255;-83
2022/06/04 08:20:46;;;;;;;4.30;3.30;;;;;;;25.75;47.70;101284.45;106777;1283;61378;-81
2022/06/04 08:23:12;;;;;;;4.50;3.30;;;;;;;25.76;47.61;101278.80;106643;1283;61461;-80
2022/06/04 08:25:42;;;;;;;4.40;3.10;;;;;;;25.76;47.65;101279.30;106436;1283;61257;-81
2022/06/04 08:28:08;;;;;;;4.00;3.20;;;;;;;25.77;47.85;101274.41;107138;1283;73853;-81
2022/06/04 08:30:34;;;;;;;4.60;3.30;;;;;;;25.77;47.70;101272.73;106762;1283;61308;-81
2022/06/04 08:32:59;;;;;;;5.20;3.50;;;;;;;25.77;47.68;101273.63;106683;1283;61427;-82
2022/06/04 08:35:25;;;;;;;6.50;3.40;;;;;;;25.78;47.70;101275.73;106569;1284;61238;-81
2022/06/04 08:37:51;;;;;;;3.90;3.10;;;;;;;25.78;47.78;101274.64;106955;1283;61373;-81
2022/06/04 08:40:40;;;;;;;4.00;3.10;;;;;;;25.78;47.57;101270.89;106988;1283;61321;-79
2022/06/04 08:43:11;;;;;;;4.10;3.30;;;;;;;25.77;47.76;101274.58;106786;1283;74644;-81
2022/06/04 08:45:37;;;;;;;4.30;3.30;;;;;;;25.77;47.75;101270.55;106918;1283;61126;-81
2022/06/04 08:48:03;;;;;;;3.50;2.90;;;;;;;25.78;47.78;101270.90;106464;1284;61182;-81
2022/06/04 08:50:33;;;;;;;4.40;3.30;;;;;;;25.77;47.78;101266.42;106838;1283;61259;-82
2022/06/04 08:53:00;;;;;;;4.50;3.70;;;;;;;25.78;47.71;101268.57;106829;1283;75803;-82
2022/06/04 08:58:51;;;;;;;4.40;3.60;;;;;;;25.77;47.59;101270.77;106910;1283;61247;-83
2022/06/04 09:01:26;;;;;;;4.40;3.30;;;;;;;25.77;47.65;101269.67;106903;1283;72735;-83
2022/06/04 09:04:04;;;;;;;5.10;3.60;;;;;;;25.77;47.72;101272.00;106726;1283;75663;-83
2022/06/04 09:06:39;;;;;;;4.00;3.20;;;;;;;25.78;47.73;101273.60;107235;1283;61147;-83
2022/06/04 09:09:11;;;;;;;4.30;3.20;;;;;;;25.77;47.54;101266.80;107255;1283;61237;-82
2022/06/04 09:11:48;;;;;;;4.90;3.50;;;;;;;25.77;47.73;101262.84;106579;1284;72889;-81
2022/06/04 09:14:31;;;;;;;5.50;3.20;;;;;;;25.76;47.75;101264.31;106938;1283;75636;-81
2022/06/04 09:17:06;;;;;;;4.50;3.40;;;;;;;25.76;47.75;101265.97;107042;1283;60328;-82
2022/06/04 09:19:34;;;;;;;5.40;3.30;;;;;;;25.76;47.53;101261.09;106611;1285;61558;-83
2022/06/04 09:22:01;;;;;;;4.80;3.50;;;;;;;25.76;47.72;101258.26;106917;1283;72719;-81
2022/06/04 09:24:26;;;;;;;4.20;3.10;;;;;;;25.76;47.81;101258.06;106608;1283;62192;-82
2022/06/04 09:27:26;;;;;;;5.10;3.30;;;;;;;25.76;47.73;101257.52;106921;1283;61278;-82
2022/06/04 09:30:30;;;;;;;4.70;3.60;;;;;;;25.75;47.68;101256.14;107240;1283;61259;-80
2022/06/04 09:33:02;;;;;;;4.40;3.50;;;;;;;25.74;47.77;101248.79;106282;1288;72538;-81
2022/06/04 09:35:32;;;;;;;4.60;3.30;;;;;;;25.75;47.71;101241.94;106404;1288;74758;-81
2022/06/04 09:37:58;;;;;;;4.70;3.70;;;;;;;25.74;47.70;101241.59;106330;1289;61398;-82
2022/06/04 09:40:30;;;;;;;4.60;3.50;;;;;;;25.74;47.63;101244.69;105959;1289;61257;-83
2022/06/04 09:43:11;;;;;;;5.50;3.80;;;;;;;25.75;47.72;101240.67;106356;1289;73777;-82
2022/06/04 09:45:37;;;;;;;4.30;3.10;;;;;;;25.74;47.74;101235.48;106401;1289;74421;-81
2022/06/04 09:48:18;;;;;;;4.10;3.10;;;;;;;25.75;47.59;101235.10;106311;1289;61289;-82
2022/06/04 09:50:50;;;;;;;3.80;3.10;;;;;;;25.74;47.56;101230.80;106041;1289;61417;-81
2022/06/04 09:53:22;;;;;;;4.30;3.50;;;;;;;25.74;47.68;101230.23;106106;1289;72951;-81
2022/06/04 09:55:55;;;;;;;3.90;3.30;;;;;;;25.74;47.80;101230.06;106379;1288;75283;-81
2022/06/04 09:58:29;;;;;;;4.50;3.20;;;;;;;25.74;47.73;101229.15;106245;1289;61180;-81
2022/06/04 10:01:06;;;;;;;4.00;3.20;;;;;;;25.75;47.59;101227.16;106072;1289;61570;-82
2022/06/04 10:03:36;;;;;;;4.30;3.30;;;;;;;25.75;47.72;101222.64;106202;1289;73730;-81
2022/06/04 10:06:17;;;;;;;4.30;3.30;;;;;;;25.75;47.65;101214.72;106233;1289;74408;-81
2022/06/04 10:12:03;;;;;;;4.20;3.60;;;;;;;25.73;47.77;101217.90;107151;1283;61948;-82
2022/06/04 10:14:37;;;;;;;4.60;3.50;;;;;;;25.74;47.75;101212.60;107169;1283;73676;-83
2022/06/04 10:17:12;;;;;;;4.60;3.60;;;;;;;25.74;47.75;101208.83;107196;1283;74001;-82
2022/06/04 10:19:38;;;;;;;4.20;3.40;;;;;;;25.74;47.81;101207.90;106813;1283;61261;-81
2022/06/04 10:22:12;;;;;;;4.40;3.60;;;;;;;25.75;47.83;101206.23;106680;1283;61295;-81
2022/06/04 10:25:17;;;;;;;4.60;3.40;;;;;;;25.75;47.79;101201.15;106683;1283;73830;-81
2022/06/04 10:27:54;;;;;;;4.30;3.60;;;;;;;25.75;47.77;101202.25;106008;1287;74709;-83
2022/06/04 10:30:50;;;;;;;4.30;3.40;;;;;;;25.76;47.75;101203.09;106135;1289;61312;-81
2022/06/04 10:33:18;;;;;;;4.80;3.80;;;;;;;25.76;47.66;101202.35;105233;1297;61284;-83
2022/06/04 10:35:43;;;;;;;4.50;3.70;;;;;;;25.76;47.59;101205.91;105255;1297;72639;-80
2022/06/04 10:38:22;;;;;;;4.70;3.90;;;;;;;25.77;47.76;101207.70;105344;1297;61683;-80
2022/06/04 10:41:26;;;;;;;4.30;3.50;;;;;;;25.77;47.59;101201.02;105281;1297;61294;-80
2022/06/04 10:43:58;;;;;;;4.30;3.60;;;;;;;25.78;47.68;101198.25;105079;1302;61297;-83
2022/06/04 10:46:41;;;;;;;5.00;3.60;;;;;;;25.78;47.81;101192.64;104970;1303;73808;-82
2022/06/04 10:49:32;;;;;;;4.80;3.50;;;;;;;25.78;47.55;101188.13;105009;1303;75712;-82
2022/06/04 10:52:09;;;;;;;5.90;3.80;;;;;;;25.79;47.60;101183.20;104952;1301;61293;-83
2022/06/04 10:54:53;;;;;;;5.00;3.80;;;;;;;25.78;47.67;101168.11;105088;1302;61137;-80
2022/06/04 10:57:27;;;;;;;4.30;3.60;;;;;;;25.77;47.63;101160.77;105058;1303;72727;-82
2022/06/04 11:00:10;;;;;;;5.00;3.70;;;;;;;25.78;47.68;101157.46;105069;1303;75155;-83
2022/06/04 11:02:49;;;;;;;4.70;3.80;;;;;;;25.78;47.55;101152.45;104867;1302;62010;-81
2022/06/04 11:05:24;;;;;;;4.80;3.90;;;;;;;25.77;47.58;101148.36;105221;1297;61179;-81
2022/06/04 11:07:53;;;;;;;5.20;3.80;;;;;;;25.78;47.75;101144.71;105366;1297;73728;-82
2022/06/04 11:10:33;;;;;;;5.30;3.90;;;;;;;25.78;47.48;101143.98;105482;1289;74565;-81
2022/06/04 11:13:02;;;;;;;4.90;4.10;;;;;;;25.78;47.76;101143.05;106033;1290;61516;-82
2022/06/04 11:15:38;;;;;;;4.80;4.00;;;;;;;25.78;47.78;101141.79;106211;1289;61283;-83
2022/06/04 11:18:12;;;;;;;5.40;4.10;;;;;;;25.78;47.65;101138.35;106254;1284;72270;-83
2022/06/04 11:20:42;;;;;;;4.90;4.00;;;;;;;25.78;47.59;101142.50;107202;1283;75765;-83
2022/06/04 11:23:40;;;;;;;5.60;4.10;;;;;;;25.78;47.50;101136.36;106898;1283;61513;-81
2022/06/04 11:26:34;;;;;;;4.90;4.30;;;;;;;25.78;47.27;101134.95;106786;1283;61882;-82
2022/06/04 11:29:01;;;;;;;5.60;4.30;;;;;;;25.78;47.49;101131.73;107206;1283;71993;-79
2022/06/04 11:31:40;;;;;;;4.80;4.00;;;;;;;25.77;47.58;101122.93;106877;1283;74793;-81
2022/06/04 11:34:36;;;;;;;4.90;4.10;;;;;;;25.77;47.32;101113.92;107226;1283;61241;-82
2022/06/04 11:37:11;;;;;;;4.50;3.80;;;;;;;25.76;47.49;101111.46;106667;1285;61153;-82
2022/06/04 11:39:42;;;;;;;6.60;4.50;;;;;;;25.77;47.56;101106.73;106894;1283;73097;-83
2022/06/04 11:42:17;;;;;;;5.50;4.00;;;;;;;25.77;47.61;101103.87;107066;1283;74937;-82
2022/06/04 11:45:06;;;;;;;5.00;4.30;;;;;;;25.77;47.49;101101.54;107058;1283;61159;-80
2022/06/04 11:47:37;;;;;;;5.10;3.90;;;;;;;25.76;47.48;101097.58;107206;1283;61242;-82